Time;durP1;ratioP1;P1;durP2;ratioP2;P2;SDS_P1;SDS_P2;PMS_P1;PMS_P2;Temp;Humidity;BMP_temperature;BMP_pressure;BME280_temperature;BME280_humidity;BME280_pressure;Samples;Min_cycle;Max_cycle;Signal;HPM_P1;HPM_P2
2022/12/09 00:02:00;;;;;;;9.33;6.80;;;;;;;;;;4998833;28;20550;-74
2022/12/09 00:04:25;;;;;;;14.27;8.20;;;;;;;;;;4984118;28;20468;-74
2022/12/09 00:06:51;;;;;;;7.17;6.30;;;;;;;;;;4994389;28;20223;-74
2022/12/09 00:09:16;;;;;;;7.40;6.07;;;;;;;;;;4981998;28;20237;-74
2022/12/09 00:11:44;;;;;;;10.10;7.27;;;;;;;;;;4976780;28;20292;-74
2022/12/09 00:14:12;;;;;;;9.90;7.40;;;;;;;;;;4994011;28;20707;-74
2022/12/09 00:16:39;;;;;;;13.70;7.90;;;;;;;;;;5002006;28;20532;-74
2022/12/09 00:19:06;;;;;;;10.60;7.97;;;;;;;;;;5002788;28;20499;-74
2022/12/09 00:21:32;;;;;;;9.60;7.30;;;;;;;;;;4984722;28;21966;-74
2022/12/09 00:23:58;;;;;;;9.03;7.30;;;;;;;;;;4998406;28;20467;-74
2022/12/09 00:26:24;;;;;;;8.90;7.07;;;;;;;;;;5001890;28;20542;-74
2022/12/09 00:28:50;;;;;;;13.53;7.57;;;;;;;;;;4998717;28;20455;-75
2022/12/09 00:31:20;;;;;;;9.30;7.60;;;;;;;;;;4997728;28;20444;-74
2022/12/09 00:33:50;;;;;;;9.53;7.70;;;;;;;;;;5001570;28;20196;-74
2022/12/09 00:36:16;;;;;;;8.50;7.43;;;;;;;;;;4998272;28;21041;-74
2022/12/09 00:38:42;;;;;;;10.43;7.83;;;;;;;;;;4982367;28;20464;-74
2022/12/09 00:41:08;;;;;;;8.30;7.03;;;;;;;;;;4998221;28;20968;-74
2022/12/09 00:43:36;;;;;;;9.57;8.20;;;;;;;;;;4983113;28;20245;-74
2022/12/09 00:46:04;;;;;;;13.17;8.27;;;;;;;;;;5001602;28;20182;-75
2022/12/09 00:48:33;;;;;;;11.03;9.00;;;;;;;;;;4998378;28;20462;-74
2022/12/09 00:50:58;;;;;;;10.90;8.07;;;;;;;;;;4998239;28;20517;-74
2022/12/09 00:53:26;;;;;;;13.33;9.87;;;;;;;;;;4985996;28;20506;-74
2022/12/09 00:55:53;;;;;;;12.13;10.57;;;;;;;;;;4992543;28;20186;-75
2022/12/09 00:58:24;;;;;;;15.10;10.83;;;;;;;;;;4998160;28;20509;-74
2022/12/09 01:00:52;;;;;;;13.37;9.33;;;;;;;;;;4996647;28;20435;-74
2022/12/09 01:03:20;;;;;;;13.30;9.97;;;;;;;;;;5000320;28;20621;-74
2022/12/09 01:05:47;;;;;;;12.40;9.97;;;;;;;;;;4994161;28;20435;-74
2022/12/09 01:08:18;;;;;;;16.93;10.30;;;;;;;;;;4997811;28;20484;-74
2022/12/09 01:10:46;;;;;;;11.93;10.03;;;;;;;;;;4995315;28;21030;-74
2022/12/09 01:13:16;;;;;;;12.83;10.70;;;;;;;;;;4996689;28;20522;-74
2022/12/09 01:15:42;;;;;;;11.03;9.83;;;;;;;;;;4992335;28;20523;-74
2022/12/09 01:18:12;;;;;;;13.90;10.83;;;;;;;;;;4993321;28;20459;-74
2022/12/09 01:20:38;;;;;;;13.33;10.73;;;;;;;;;;4995628;28;20649;-74
2022/12/09 01:23:05;;;;;;;12.90;10.93;;;;;;;;;;4996176;28;20467;-74
2022/12/09 01:25:33;;;;;;;15.23;10.77;;;;;;;;;;4992633;28;20228;-74
2022/12/09 01:28:03;;;;;;;15.33;11.10;;;;;;;;;;4990820;28;20457;-74
2022/12/09 01:30:30;;;;;;;15.70;10.67;;;;;;;;;;4996206;28;20443;-74
2022/12/09 01:32:56;;;;;;;13.10;10.53;;;;;;;;;;4994809;28;20440;-74
2022/12/09 01:35:25;;;;;;;15.40;11.83;;;;;;;;;;4996219;28;21259;-74
2022/12/09 01:37:51;;;;;;;15.60;10.50;;;;;;;;;;4993359;28;20236;-74
2022/12/09 01:40:19;;;;;;;15.67;11.10;;;;;;;;;;4978225;28;20523;-74
2022/12/09 01:42:51;;;;;;;13.70;10.33;;;;;;;;;;4979113;28;20310;-74
2022/12/09 01:45:19;;;;;;;12.73;9.93;;;;;;;;;;4993565;28;20439;-74
2022/12/09 01:47:49;;;;;;;13.33;10.13;;;;;;;;;;4979493;28;20803;-74
2022/12/09 01:50:15;;;;;;;12.53;9.90;;;;;;;;;;4993117;28;20452;-74
2022/12/09 01:52:41;;;;;;;13.20;10.07;;;;;;;;;;4994371;28;20519;-74
2022/12/09 01:55:06;;;;;;;12.67;9.03;;;;;;;;;;4994990;28;20455;-74
2022/12/09 01:57:34;;;;;;;11.83;9.13;;;;;;;;;;4990970;28;20203;-74
2022/12/09 02:00:02;;;;;;;12.20;8.87;;;;;;;;;;4992478;28;20177;-74
2022/12/09 02:02:29;;;;;;;11.50;9.10;;;;;;;;;;4997784;28;20558;-73
2022/12/09 02:04:57;;;;;;;11.63;9.20;;;;;;;;;;4976793;28;20440;-74
2022/12/09 02:07:22;;;;;;;10.67;9.00;;;;;;;;;;4981319;28;20460;-74
2022/12/09 02:09:51;;;;;;;11.40;8.80;;;;;;;;;;4996243;28;20542;-73
2022/12/09 02:12:34;;;;;;;9.00;7.70;;;;;;;;;;4998348;28;20182;-74
2022/12/09 02:15:09;;;;;;;8.73;7.47;;;;;;;;;;4994938;28;20519;-74
2022/12/09 02:18:06;;;;;;;13.40;8.23;;;;;;;;;;4995197;28;20476;-74
2022/12/09 02:20:34;;;;;;;10.60;7.63;;;;;;;;;;4946070;28;20462;-74
2022/12/09 02:23:06;;;;;;;8.40;7.30;;;;;;;;;;4984245;28;20464;-74
2022/12/09 02:25:44;;;;;;;12.33;8.00;;;;;;;;;;4993194;28;20463;-74
2022/12/09 02:28:09;;;;;;;11.57;6.90;;;;;;;;;;4993900;28;20452;-74
2022/12/09 02:30:43;;;;;;;6.43;5.83;;;;;;;;;;4996105;28;20431;-74
2022/12/09 02:33:25;;;;;;;6.63;5.93;;;;;;;;;;4997947;28;20296;-74
2022/12/09 02:36:01;;;;;;;8.20;5.40;;;;;;;;;;4998659;28;20440;-74
2022/12/09 02:38:27;;;;;;;8.90;5.70;;;;;;;;;;4987884;28;20483;-74
2022/12/09 02:40:57;;;;;;;8.17;5.77;;;;;;;;;;5001190;28;20945;-74
2022/12/09 02:43:24;;;;;;;6.53;5.83;;;;;;;;;;5001273;28;20486;-74
2022/12/09 02:45:50;;;;;;;6.13;4.80;;;;;;;;;;4981910;28;20834;-74
2022/12/09 02:48:17;;;;;;;8.80;5.60;;;;;;;;;;4991136;28;20460;-74
2022/12/09 02:50:43;;;;;;;8.47;5.33;;;;;;;;;;4995838;28;20185;-74
2022/12/09 02:53:10;;;;;;;10.97;5.57;;;;;;;;;;4975565;28;20450;-74
2022/12/09 02:55:36;;;;;;;6.57;4.70;;;;;;;;;;4996925;28;20984;-74
2022/12/09 02:58:01;;;;;;;7.70;5.20;;;;;;;;;;4994670;28;20463;-74
2022/12/09 03:00:27;;;;;;;7.03;5.40;;;;;;;;;;4996364;28;20252;-74
2022/12/09 03:02:54;;;;;;;9.23;5.80;;;;;;;;;;4995934;28;20200;-74
2022/12/09 03:05:20;;;;;;;9.03;7.17;;;;;;;;;;4996671;28;20180;-74
2022/12/09 03:07:54;;;;;;;8.80;6.13;;;;;;;;;;4986888;28;20931;-73
2022/12/09 03:10:25;;;;;;;13.67;7.13;;;;;;;;;;4992573;28;20173;-74
2022/12/09 03:12:55;;;;;;;8.60;6.87;;;;;;;;;;4992316;28;20439;-74
2022/12/09 03:15:23;;;;;;;11.30;7.37;;;;;;;;;;4973320;28;21062;-74
2022/12/09 03:17:50;;;;;;;10.27;8.37;;;;;;;;;;4993906;28;21341;-75
2022/12/09 03:20:20;;;;;;;10.00;8.37;;;;;;;;;;4992044;28;20444;-74
2022/12/09 03:22:46;;;;;;;12.37;8.53;;;;;;;;;;4995585;28;20490;-74
2022/12/09 03:25:20;;;;;;;11.13;9.33;;;;;;;;;;4974977;28;20476;-74
2022/12/09 03:27:49;;;;;;;17.17;9.60;;;;;;;;;;4978239;28;20489;-74
2022/12/09 03:30:14;;;;;;;9.60;8.37;;;;;;;;;;4993499;28;20930;-75
2022/12/09 03:32:41;;;;;;;11.00;8.83;;;;;;;;;;4994178;28;20440;-74
2022/12/09 03:35:08;;;;;;;9.93;8.67;;;;;;;;;;4994096;28;20185;-74
2022/12/09 03:37:35;;;;;;;11.23;7.80;;;;;;;;;;4979725;28;20468;-74
2022/12/09 03:40:02;;;;;;;10.13;8.60;;;;;;;;;;4991257;28;20439;-75
2022/12/09 03:42:32;;;;;;;17.07;9.60;;;;;;;;;;4992119;28;20474;-74
2022/12/09 03:44:59;;;;;;;11.50;8.97;;;;;;;;;;4992549;28;20429;-74
2022/12/09 03:47:25;;;;;;;11.23;8.80;;;;;;;;;;4970695;28;20532;-75
2022/12/09 03:49:50;;;;;;;10.30;8.87;;;;;;;;;;4994099;28;20511;-74
2022/12/09 03:52:21;;;;;;;11.93;8.33;;;;;;;;;;4993138;28;20200;-75
2022/12/09 03:54:48;;;;;;;10.30;8.60;;;;;;;;;;4974330;28;20252;-74
2022/12/09 03:57:15;;;;;;;11.80;9.17;;;;;;;;;;4979650;28;20527;-75
2022/12/09 03:59:42;;;;;;;12.00;9.03;;;;;;;;;;4986591;28;20455;-74
2022/12/09 04:02:07;;;;;;;13.83;9.27;;;;;;;;;;4995036;28;20514;-75
2022/12/09 04:04:33;;;;;;;12.50;9.73;;;;;;;;;;4995558;28;20452;-74
2022/12/09 04:06:58;;;;;;;11.03;9.07;;;;;;;;;;4994404;28;20184;-74
2022/12/09 04:09:24;;;;;;;10.40;9.30;;;;;;;;;;4992037;28;20205;-75
2022/12/09 04:11:49;;;;;;;12.33;10.03;;;;;;;;;;4996067;28;20207;-74
2022/12/09 04:14:14;;;;;;;12.17;8.80;;;;;;;;;;4998047;28;20564;-75
2022/12/09 04:16:39;;;;;;;12.50;9.87;;;;;;;;;;4999529;28;20180;-75
2022/12/09 04:19:05;;;;;;;13.43;9.90;;;;;;;;;;4986303;28;20563;-74
2022/12/09 04:21:30;;;;;;;13.10;9.70;;;;;;;;;;4998311;28;20211;-74
2022/12/09 04:23:55;;;;;;;12.77;9.33;;;;;;;;;;5000676;28;20178;-75
2022/12/09 04:26:21;;;;;;;17.73;10.13;;;;;;;;;;5001276;28;20173;-74
2022/12/09 04:28:47;;;;;;;12.37;8.83;;;;;;;;;;4997464;28;20205;-74
2022/12/09 04:31:13;;;;;;;15.10;10.20;;;;;;;;;;5003041;28;20443;-74
2022/12/09 04:33:39;;;;;;;10.93;8.70;;;;;;;;;;4984528;28;20267;-74
2022/12/09 04:36:05;;;;;;;11.17;9.37;;;;;;;;;;4984422;28;20544;-74
2022/12/09 04:38:31;;;;;;;12.03;8.67;;;;;;;;;;4989884;28;20730;-74
2022/12/09 04:40:58;;;;;;;10.00;8.93;;;;;;;;;;4988107;28;20508;-74
2022/12/09 04:43:23;;;;;;;17.33;8.83;;;;;;;;;;5000246;28;20259;-74
2022/12/09 04:45:50;;;;;;;11.73;9.40;;;;;;;;;;5003255;28;20453;-74
2022/12/09 04:48:16;;;;;;;10.10;8.60;;;;;;;;;;5012785;23;20769;-70
2022/12/09 04:50:41;;;;;;;10.40;8.30;;;;;;;;;;5004718;28;20445;-70
2022/12/09 04:53:06;;;;;;;10.93;8.20;;;;;;;;;;5010326;28;20180;-70
2022/12/09 04:55:32;;;;;;;10.03;7.47;;;;;;;;;;5025960;28;20177;-70
2022/12/09 04:57:57;;;;;;;9.93;7.80;;;;;;;;;;5027091;28;20224;-70
2022/12/09 05:00:22;;;;;;;11.60;8.43;;;;;;;;;;5020386;28;20172;-70
2022/12/09 05:02:48;;;;;;;8.70;7.80;;;;;;;;;;5024742;28;20227;-70
2022/12/09 05:05:13;;;;;;;10.80;8.40;;;;;;;;;;5011237;28;20557;-70
2022/12/09 05:07:46;;;;;;;10.37;7.43;;;;;;;;;;5022734;28;20200;-70
2022/12/09 05:10:11;;;;;;;9.93;7.40;;;;;;;;;;5019295;28;20763;-70
2022/12/09 05:12:37;;;;;;;8.43;7.40;;;;;;;;;;5020146;28;20497;-70
2022/12/09 05:15:02;;;;;;;9.47;8.37;;;;;;;;;;5018524;28;20196;-70
2022/12/09 05:17:28;;;;;;;8.47;7.67;;;;;;;;;;5024233;28;20529;-70
2022/12/09 05:19:53;;;;;;;8.10;7.10;;;;;;;;;;5018221;28;20180;-70
2022/12/09 05:22:19;;;;;;;7.90;7.00;;;;;;;;;;5022789;28;20208;-70
2022/12/09 05:24:45;;;;;;;11.43;7.90;;;;;;;;;;5002967;28;20188;-70
2022/12/09 05:27:14;;;;;;;9.07;7.83;;;;;;;;;;5005684;28;20177;-70
2022/12/09 05:29:39;;;;;;;9.90;8.60;;;;;;;;;;5017711;28;20423;-70
2022/12/09 05:32:05;;;;;;;8.70;7.80;;;;;;;;;;5001194;28;20450;-70
2022/12/09 05:34:30;;;;;;;11.03;8.03;;;;;;;;;;5017977;28;20247;-70
2022/12/09 05:36:59;;;;;;;12.63;8.40;;;;;;;;;;4995590;28;20183;-70
2022/12/09 05:39:24;;;;;;;10.23;8.90;;;;;;;;;;5000673;28;20201;-69
2022/12/09 05:41:50;;;;;;;9.60;8.13;;;;;;;;;;5015159;28;20470;-70
2022/12/09 05:44:15;;;;;;;11.67;8.70;;;;;;;;;;4998342;28;20196;-70
2022/12/09 05:46:40;;;;;;;8.83;7.83;;;;;;;;;;4998675;28;20535;-70
2022/12/09 05:49:06;;;;;;;9.90;8.20;;;;;;;;;;5011967;28;20242;-70
2022/12/09 05:51:31;;;;;;;9.97;8.27;;;;;;;;;;5019298;28;20279;-70
2022/12/09 05:53:59;;;;;;;11.20;9.00;;;;;;;;;;5005874;28;20272;-70
2022/12/09 05:56:25;;;;;;;9.23;7.67;;;;;;;;;;5001614;28;20176;-70
2022/12/09 05:58:50;;;;;;;10.50;9.13;;;;;;;;;;5018706;28;20469;-70
2022/12/09 06:01:16;;;;;;;13.00;8.17;;;;;;;;;;5019265;28;20263;-70
2022/12/09 06:03:41;;;;;;;11.60;8.37;;;;;;;;;;5007511;28;20319;-69
2022/12/09 06:06:08;;;;;;;14.00;8.70;;;;;;;;;;5002607;28;20185;-69
2022/12/09 06:08:33;;;;;;;13.43;8.70;;;;;;;;;;5002513;28;20216;-69
2022/12/09 06:10:58;;;;;;;13.37;9.50;;;;;;;;;;5023172;28;20430;-69
2022/12/09 06:13:23;;;;;;;14.30;9.33;;;;;;;;;;5016462;28;20180;-69
2022/12/09 06:15:49;;;;;;;9.83;8.53;;;;;;;;;;5022739;28;20181;-69
2022/12/09 06:18:14;;;;;;;12.70;8.70;;;;;;;;;;5021746;28;20231;-69
2022/12/09 06:20:40;;;;;;;11.30;9.17;;;;;;;;;;5021309;28;20191;-69
2022/12/09 06:23:05;;;;;;;11.13;9.00;;;;;;;;;;5002467;28;20215;-70
2022/12/09 06:25:31;;;;;;;11.70;9.57;;;;;;;;;;5004546;28;20207;-70
2022/12/09 06:27:56;;;;;;;10.80;8.93;;;;;;;;;;5019008;28;20920;-70
2022/12/09 06:30:24;;;;;;;11.33;8.87;;;;;;;;;;5004903;28;20496;-70
2022/12/09 06:32:50;;;;;;;13.00;9.60;;;;;;;;;;5002186;28;20459;-70
2022/12/09 06:35:15;;;;;;;12.43;10.17;;;;;;;;;;5002623;28;20446;-70
2022/12/09 06:37:40;;;;;;;13.13;9.60;;;;;;;;;;5001689;28;20554;-70
2022/12/09 06:40:06;;;;;;;16.17;10.63;;;;;;;;;;5021594;28;20532;-70
2022/12/09 06:42:32;;;;;;;17.93;13.13;;;;;;;;;;5023227;28;20741;-70
2022/12/09 06:44:57;;;;;;;16.60;12.40;;;;;;;;;;5020397;28;20526;-70
2022/12/09 06:47:23;;;;;;;13.60;9.80;;;;;;;;;;5006327;28;20184;-70
2022/12/09 06:49:48;;;;;;;14.70;11.63;;;;;;;;;;5007707;28;20212;-70
2022/12/09 06:52:13;;;;;;;14.90;12.63;;;;;;;;;;5018335;28;20198;-70
2022/12/09 06:54:39;;;;;;;18.03;11.87;;;;;;;;;;5025025;28;20199;-70
2022/12/09 06:57:04;;;;;;;14.63;11.03;;;;;;;;;;5024208;28;20188;-71
2022/12/09 06:59:29;;;;;;;17.90;11.70;;;;;;;;;;5024151;28;20705;-70
2022/12/09 07:01:55;;;;;;;17.37;11.63;;;;;;;;;;5023250;28;20693;-71
2022/12/09 07:04:21;;;;;;;13.50;11.50;;;;;;;;;;5008368;28;20192;-71
2022/12/09 07:06:47;;;;;;;18.73;12.10;;;;;;;;;;5008262;28;20765;-71
2022/12/09 07:09:17;;;;;;;16.30;11.40;;;;;;;;;;5021901;28;20443;-71
2022/12/09 07:11:44;;;;;;;15.10;11.63;;;;;;;;;;5023849;28;20226;-71
2022/12/09 07:14:10;;;;;;;17.37;12.47;;;;;;;;;;5006159;28;20965;-71
2022/12/09 07:16:36;;;;;;;15.60;12.50;;;;;;;;;;5006411;28;20835;-71
2022/12/09 07:19:02;;;;;;;13.77;11.70;;;;;;;;;;5025335;28;20447;-71
2022/12/09 07:21:28;;;;;;;15.83;12.27;;;;;;;;;;5024162;28;20184;-70
2022/12/09 07:23:53;;;;;;;13.63;11.73;;;;;;;;;;5017758;28;20783;-71
2022/12/09 07:26:19;;;;;;;16.20;13.10;;;;;;;;;;5021491;28;20187;-71
2022/12/09 07:28:49;;;;;;;14.53;13.00;;;;;;;;;;5002734;28;20574;-71
2022/12/09 07:31:30;;;;;;;14.63;11.83;;;;;;;;;;5005713;28;20184;-71
2022/12/09 07:33:56;;;;;;;14.53;12.93;;;;;;;;;;5019078;28;20461;-70
2022/12/09 07:36:22;;;;;;;15.40;13.27;;;;;;;;;;5003610;28;20435;-71
2022/12/09 07:38:47;;;;;;;16.07;12.03;;;;;;;;;;5023526;28;20802;-71
2022/12/09 07:41:21;;;;;;;15.90;12.27;;;;;;;;;;5002237;28;20794;-71
2022/12/09 07:43:47;;;;;;;14.33;12.37;;;;;;;;;;5021043;28;20168;-71
2022/12/09 07:46:14;;;;;;;15.07;11.00;;;;;;;;;;5019104;28;20482;-71
2022/12/09 07:48:39;;;;;;;16.43;11.20;;;;;;;;;;5026069;28;20212;-71
2022/12/09 07:51:04;;;;;;;16.00;12.63;;;;;;;;;;5024301;28;20453;-71
2022/12/09 07:53:30;;;;;;;14.60;12.23;;;;;;;;;;5004791;28;20271;-70
2022/12/09 07:55:59;;;;;;;17.90;13.73;;;;;;;;;;5006467;28;20738;-70
2022/12/09 07:58:25;;;;;;;19.30;13.27;;;;;;;;;;5004578;28;20215;-70
2022/12/09 08:00:50;;;;;;;14.23;12.33;;;;;;;;;;5007431;28;20807;-70
2022/12/09 08:03:16;;;;;;;17.50;14.37;;;;;;;;;;5007664;28;20654;-70
2022/12/09 08:05:48;;;;;;;16.17;13.07;;;;;;;;;;5005366;28;20188;-70
2022/12/09 08:08:14;;;;;;;17.93;13.57;;;;;;;;;;5021956;28;20483;-70
2022/12/09 08:10:43;;;;;;;20.43;14.40;;;;;;;;;;5020992;28;20738;-70
2022/12/09 08:13:08;;;;;;;18.17;13.80;;;;;;;;;;5017835;28;22632;-70
2022/12/09 08:15:37;;;;;;;19.97;13.87;;;;;;;;;;5012908;28;20431;-70
2022/12/09 08:18:03;;;;;;;16.50;13.40;;;;;;;;;;5025125;28;20204;-70
2022/12/09 08:20:31;;;;;;;20.53;12.37;;;;;;;;;;5013944;28;20445;-70
2022/12/09 08:23:00;;;;;;;19.00;14.83;;;;;;;;;;5024819;28;20208;-70
2022/12/09 08:25:25;;;;;;;18.23;15.17;;;;;;;;;;5003851;28;20442;-70
2022/12/09 08:27:50;;;;;;;17.97;14.07;;;;;;;;;;5004455;28;20451;-70
2022/12/09 08:30:16;;;;;;;17.67;13.60;;;;;;;;;;5022054;28;20195;-70
2022/12/09 08:32:41;;;;;;;19.20;14.30;;;;;;;;;;5005281;28;20565;-70
2022/12/09 08:35:13;;;;;;;17.33;13.80;;;;;;;;;;5025796;28;20276;-70
2022/12/09 08:37:38;;;;;;;22.87;14.70;;;;;;;;;;5024914;28;20208;-70
2022/12/09 08:40:04;;;;;;;20.73;15.50;;;;;;;;;;5005703;28;20431;-70
2022/12/09 08:42:29;;;;;;;20.10;15.87;;;;;;;;;;5018566;28;20204;-70
2022/12/09 08:44:55;;;;;;;19.00;13.67;;;;;;;;;;5022657;28;20173;-70
2022/12/09 08:47:20;;;;;;;16.27;13.80;;;;;;;;;;5006739;28;20574;-70
2022/12/09 08:49:45;;;;;;;19.70;14.27;;;;;;;;;;5005134;28;20467;-70
2022/12/09 08:52:11;;;;;;;19.33;13.80;;;;;;;;;;5001325;28;20217;-70
2022/12/09 08:54:36;;;;;;;18.97;15.33;;;;;;;;;;5026413;28;20271;-70
2022/12/09 08:57:01;;;;;;;18.00;14.97;;;;;;;;;;5008152;28;20180;-70
2022/12/09 08:59:27;;;;;;;19.33;14.47;;;;;;;;;;5019752;28;20253;-70
2022/12/09 09:01:52;;;;;;;17.27;14.20;;;;;;;;;;5022532;28;20311;-71
2022/12/09 09:04:18;;;;;;;17.40;14.00;;;;;;;;;;5000444;28;20267;-69
2022/12/09 09:06:45;;;;;;;18.17;14.90;;;;;;;;;;5008249;28;20588;-69
2022/12/09 09:09:11;;;;;;;22.93;15.40;;;;;;;;;;5025244;28;20866;-69
2022/12/09 09:11:36;;;;;;;22.17;15.67;;;;;;;;;;5001812;28;20802;-69
2022/12/09 09:14:03;;;;;;;23.20;15.83;;;;;;;;;;4998094;28;20435;-69
2022/12/09 09:16:28;;;;;;;17.70;14.70;;;;;;;;;;5004383;28;20184;-69
2022/12/09 09:18:57;;;;;;;17.70;15.03;;;;;;;;;;5027236;28;20458;-69
2022/12/09 09:21:23;;;;;;;16.73;14.13;;;;;;;;;;5021069;28;20428;-70
2022/12/09 09:23:49;;;;;;;19.67;14.87;;;;;;;;;;5004030;28;20477;-69
2022/12/09 09:26:18;;;;;;;22.13;15.53;;;;;;;;;;5005021;28;20439;-70
2022/12/09 09:28:44;;;;;;;17.57;15.50;;;;;;;;;;5007332;28;20227;-70
2022/12/09 09:31:10;;;;;;;25.47;16.17;;;;;;;;;;5004395;28;20589;-71
2022/12/09 09:33:36;;;;;;;19.37;15.73;;;;;;;;;;5004887;28;20269;-72
2022/12/09 09:36:03;;;;;;;19.73;15.90;;;;;;;;;;5008696;28;20550;-71
2022/12/09 09:38:30;;;;;;;18.00;15.30;;;;;;;;;;5007031;28;20599;-70
2022/12/09 09:40:57;;;;;;;18.77;14.27;;;;;;;;;;5008207;28;20537;-70
2022/12/09 09:43:24;;;;;;;18.03;14.13;;;;;;;;;;5010136;28;20477;-70
2022/12/09 09:45:50;;;;;;;19.80;15.37;;;;;;;;;;5026948;28;20419;-70
2022/12/09 09:48:21;;;;;;;17.10;14.00;;;;;;;;;;5005424;28;20815;-71
2022/12/09 09:50:46;;;;;;;17.73;13.60;;;;;;;;;;4999548;28;20522;-71
2022/12/09 09:53:16;;;;;;;19.30;15.37;;;;;;;;;;5027651;28;20521;-71
2022/12/09 09:55:45;;;;;;;23.07;15.67;;;;;;;;;;5028716;28;20278;-71
2022/12/09 09:58:30;;;;;;;18.87;15.30;;;;;;;;;;5025353;28;20458;-70
2022/12/09 10:01:00;;;;;;;19.43;15.43;;;;;;;;;;5022871;28;20914;-71
2022/12/09 10:03:46;;;;;;;17.67;14.33;;;;;;;;;;5022200;28;20467;-71
2022/12/09 10:06:31;;;;;;;22.40;16.57;;;;;;;;;;4958513;28;20431;-71
2022/12/09 10:09:03;;;;;;;19.77;14.50;;;;;;;;;;5024764;28;20501;-71
2022/12/09 10:11:28;;;;;;;17.97;14.77;;;;;;;;;;5009125;28;20419;-70
2022/12/09 10:13:54;;;;;;;18.47;14.60;;;;;;;;;;5007601;28;20431;-70
2022/12/09 10:16:25;;;;;;;23.30;15.17;;;;;;;;;;5006387;28;20188;-69
2022/12/09 10:18:57;;;;;;;17.67;14.53;;;;;;;;;;5001981;28;20320;-69
2022/12/09 10:21:22;;;;;;;21.07;16.30;;;;;;;;;;5022287;28;20439;-70
2022/12/09 10:23:48;;;;;;;17.80;14.23;;;;;;;;;;5022398;28;20435;-69
2022/12/09 10:26:19;;;;;;;17.40;14.27;;;;;;;;;;4995606;28;20181;-71
2022/12/09 10:28:46;;;;;;;21.00;15.87;;;;;;;;;;5014664;28;20470;-70
2022/12/09 10:31:12;;;;;;;21.20;15.50;;;;;;;;;;5000881;28;20949;-70
2022/12/09 10:33:38;;;;;;;18.70;15.07;;;;;;;;;;5022295;28;20557;-70
2022/12/09 10:36:04;;;;;;;17.27;14.47;;;;;;;;;;5023866;28;20466;-70
2022/12/09 10:38:30;;;;;;;17.20;14.17;;;;;;;;;;5025186;28;20941;-71
2022/12/09 10:40:55;;;;;;;17.47;13.73;;;;;;;;;;5015971;28;20435;-70
2022/12/09 10:43:37;;;;;;;17.30;14.50;;;;;;;;;;5015784;28;20200;-71
2022/12/09 10:46:03;;;;;;;21.93;16.30;;;;;;;;;;5023017;28;20180;-70
2022/12/09 10:48:40;;;;;;;22.83;16.50;;;;;;;;;;5002002;28;20474;-69
2022/12/09 10:51:10;;;;;;;19.77;15.70;;;;;;;;;;5029699;23;20633;-75
2022/12/09 10:53:35;;;;;;;21.07;15.50;;;;;;;;;;5002312;28;20442;-76
2022/12/09 10:56:04;;;;;;;18.77;15.77;;;;;;;;;;5024230;28;20431;-77
2022/12/09 10:58:30;;;;;;;23.00;17.07;;;;;;;;;;5023576;28;20176;-75
2022/12/09 11:01:02;;;;;;;25.17;16.23;;;;;;;;;;5025179;28;20852;-76
2022/12/09 11:03:27;;;;;;;21.48;19.10;;;;;;;;;;5004081;28;20422;-75
2022/12/09 11:06:18;;;;;;;22.43;18.67;;;;;;;;;;5023011;28;20176;-75
2022/12/09 11:08:54;;;;;;;25.23;18.53;;;;;;;;;;4993449;28;20181;-75
2022/12/09 11:11:39;;;;;;;24.47;18.40;;;;;;;;;;5004179;28;20446;-75
2022/12/09 11:14:21;;;;;;;26.30;20.30;;;;;;;;;;5005827;28;20430;-75
2022/12/09 11:16:48;;;;;;;25.60;19.43;;;;;;;;;;5017263;28;20427;-74
2022/12/09 11:19:16;;;;;;;26.30;19.93;;;;;;;;;;5025833;28;20427;-75
2022/12/09 11:21:43;;;;;;;26.83;20.23;;;;;;;;;;5022424;28;20481;-75
2022/12/09 11:24:24;;;;;;;27.50;19.93;;;;;;;;;;5013750;28;20485;-74
2022/12/09 11:26:49;;;;;;;26.77;23.13;;;;;;;;;;5011044;28;20436;-74
2022/12/09 11:29:16;;;;;;;26.90;21.87;;;;;;;;;;5028958;28;20836;-75
2022/12/09 11:31:44;;;;;;;28.63;21.60;;;;;;;;;;5011962;28;20203;-74
2022/12/09 11:34:21;;;;;;;26.40;21.13;;;;;;;;;;5006813;28;20451;-74
2022/12/09 11:36:50;;;;;;;31.40;23.00;;;;;;;;;;5026258;28;20472;-75
2022/12/09 11:39:23;;;;;;;29.00;22.47;;;;;;;;;;5028158;28;20554;-74
2022/12/09 11:42:18;;;;;;;28.70;21.40;;;;;;;;;;5029268;28;20546;-74
2022/12/09 11:44:52;;;;;;;30.37;23.60;;;;;;;;;;5019991;28;20933;-74
2022/12/09 11:47:24;;;;;;;30.20;22.00;;;;;;;;;;5030752;28;20779;-76
2022/12/09 11:49:55;;;;;;;30.27;21.83;;;;;;;;;;5028247;28;20459;-76
2022/12/09 11:52:24;;;;;;;28.58;24.17;;;;;;;;;;5009278;28;20929;-75
2022/12/09 11:54:58;;;;;;;28.20;22.03;;;;;;;;;;5028947;28;20189;-75
2022/12/09 11:57:35;;;;;;;37.73;26.57;;;;;;;;;;5026401;28;20801;-74
2022/12/09 12:00:06;;;;;;;32.42;26.15;;;;;;;;;;5003636;28;20441;-74
2022/12/09 12:02:40;;;;;;;37.67;26.17;;;;;;;;;;5028139;28;20306;-74
2022/12/09 12:05:21;;;;;;;38.60;21.47;;;;;;;;;;5026564;28;20437;-74
2022/12/09 12:07:57;;;;;;;41.95;23.85;;;;;;;;;;5027030;28;20408;-74
2022/12/09 12:10:27;;;;;;;30.00;22.00;;;;;;;;;;5027799;28;20792;-74
2022/12/09 12:12:56;;;;;;;56.87;23.00;;;;;;;;;;5025603;28;20454;-74
2022/12/09 12:15:51;;;;;;;37.03;23.40;;;;;;;;;;5024908;28;20930;-74
2022/12/09 12:18:20;;;;;;;30.92;24.25;;;;;;;;;;5001123;28;20419;-75
2022/12/09 12:20:57;;;;;;;50.77;24.33;;;;;;;;;;5028407;28;20200;-74
2022/12/09 12:23:31;;;;;;;51.08;24.13;;;;;;;;;;5006823;28;20460;-75
2022/12/09 12:25:56;;;;;;;76.20;23.57;;;;;;;;;;5026049;28;20176;-74
2022/12/09 12:28:34;;;;;;;75.60;22.00;;;;;;;;;;5024981;28;20820;-75
2022/12/09 12:31:50;;;;;;;30.50;22.30;;;;;;;;;;5027829;28;20199;-75
2022/12/09 12:34:11;;;;;;;29.88;23.50;;;;;;;;;;5015862;28;20394;-74
2022/12/09 12:36:42;;;;;;;32.23;20.80;;;;;;;;;;5030430;28;20616;-74
2022/12/09 12:39:17;;;;;;;;;;;;;;;;;;;;;
2022/12/09 12:42:15;;;;;;;28.15;22.75;;;;;;;;;;5024107;28;20436;-74
2022/12/09 12:47:57;;;;;;;;;;;;;;;;;;;;;
2022/12/09 12:54:30;;;;;;;27.20;19.77;;;;;;;;;;5111315;27;20631;-73
2022/12/09 12:57:34;;;;;;;;;;;;;;;;;;;;;
2022/12/09 13:00:10;;;;;;;28.77;21.83;;;;;;;;;;5101640;28;20409;-73
2022/12/09 13:02:43;;;;;;;27.50;21.13;;;;;;;;;;5104403;28;20497;-73
2022/12/09 13:05:19;;;;;;;26.07;19.83;;;;;;;;;;5105255;28;20421;-73
2022/12/09 13:08:06;;;;;;;;;;;;;;;;;;;;;
2022/12/09 13:10:42;;;;;;;26.27;21.90;;;;;;;;;;5095598;28;20417;-73
2022/12/09 13:13:17;;;;;;;30.03;20.97;;;;;;;;;;5101709;28;20226;-73
2022/12/09 13:15:50;;;;;;;29.00;21.07;;;;;;;;;;5096414;28;20428;-73
2022/12/09 13:21:38;;;;;;;31.90;22.20;;;;;;;;;;5076588;27;20552;-73
2022/12/09 13:24:30;;;;;;;;;;;;;;;;;;;;;
2022/12/09 13:26:56;;;;;;;32.85;24.65;;;;;;;;;;5063581;28;20886;-73
2022/12/09 13:29:36;;;;;;;33.90;22.97;;;;;;;;;;5064960;28;20195;-73
2022/12/09 13:32:01;;;;;;;34.20;22.23;;;;;;;;;;5067760;28;20175;-73
2022/12/09 13:34:39;;;;;;;29.80;20.80;;;;;;;;;;5057985;28;20452;-73
2022/12/09 13:37:24;;;;;;;33.63;22.20;;;;;;;;;;5053353;28;20182;-72
2022/12/09 13:39:49;;;;;;;38.43;24.77;;;;;;;;;;5068964;28;20457;-73
2022/12/09 13:45:12;;;;;;;32.10;22.60;;;;;;;;;;5067173;28;20745;-73
2022/12/09 13:47:37;;;;;;;35.77;23.80;;;;;;;;;;5051722;28;20440;-73
2022/12/09 13:50:07;;;;;;;34.57;22.10;;;;;;;;;;5055964;28;20465;-74
2022/12/09 13:52:51;;;;;;;34.40;22.40;;;;;;;;;;5068890;28;20187;-74
2022/12/09 13:55:34;;;;;;;34.73;22.87;;;;;;;;;;5071228;28;20424;-74
2022/12/09 13:58:08;;;;;;;34.57;22.77;;;;;;;;;;5057130;28;20461;-75
2022/12/09 14:00:34;;;;;;;32.67;21.17;;;;;;;;;;5059580;28;20458;-75
2022/12/09 14:03:02;;;;;;;35.20;21.23;;;;;;;;;;5073033;28;20425;-75
2022/12/09 14:05:29;;;;;;;30.97;22.30;;;;;;;;;;5046927;28;20187;-73
2022/12/09 14:08:02;;;;;;;34.33;22.80;;;;;;;;;;5064226;28;20445;-73
2022/12/09 14:10:45;;;;;;;31.43;21.93;;;;;;;;;;5052145;28;20473;-73
2022/12/09 14:13:36;;;;;;;31.23;20.23;;;;;;;;;;5058749;28;20507;-73
2022/12/09 14:16:08;;;;;;;33.27;21.90;;;;;;;;;;5055158;28;20810;-73
2022/12/09 14:18:33;;;;;;;31.70;21.43;;;;;;;;;;5059049;28;20428;-73
2022/12/09 14:21:17;;;;;;;31.57;21.53;;;;;;;;;;5058555;28;20472;-72
2022/12/09 14:24:00;;;;;;;29.33;19.50;;;;;;;;;;5076336;28;20175;-73
2022/12/09 14:26:58;;;;;;;31.43;19.97;;;;;;;;;;5064532;28;20424;-73
2022/12/09 14:29:43;;;;;;;36.30;23.67;;;;;;;;;;5022169;28;20468;-73
2022/12/09 14:32:22;;;;;;;35.97;21.97;;;;;;;;;;5063359;28;20485;-73
2022/12/09 14:34:57;;;;;;;33.73;21.93;;;;;;;;;;5063097;28;20513;-73
2022/12/09 14:37:38;;;;;;;32.17;21.63;;;;;;;;;;5058022;28;20464;-73
2022/12/09 14:40:16;;;;;;;37.93;22.73;;;;;;;;;;5058524;28;20535;-72
2022/12/09 14:43:06;;;;;;;33.63;22.20;;;;;;;;;;5059061;28;20441;-73
2022/12/09 14:45:46;;;;;;;36.13;22.47;;;;;;;;;;5042123;28;20438;-73
2022/12/09 14:48:15;;;;;;;30.93;21.03;;;;;;;;;;5054486;28;20425;-73
2022/12/09 14:50:40;;;;;;;31.30;22.47;;;;;;;;;;5033770;28;20469;-73
2022/12/09 14:53:07;;;;;;;33.80;21.60;;;;;;;;;;5056567;28;20804;-73
2022/12/09 14:55:35;;;;;;;34.40;23.17;;;;;;;;;;5038955;28;20175;-73